Time;durP1;ratioP1;P1;durP2;ratioP2;P2;SDS_P1;SDS_P2;PMS_P1;PMS_P2;Temp;Humidity;BMP_temperature;BMP_pressure;BME280_temperature;BME280_humidity;BME280_pressure;Samples;Min_cycle;Max_cycle;Signal;HPM_P1;HPM_P2
2022/10/04 00:01:11;;;;;;;1.33;1.30;;;;;;;;;;5100548;28;20276;-64
2022/10/04 00:03:42;;;;;;;1.60;1.50;;;;;;;;;;5100094;28;20236;-64
2022/10/04 00:06:19;;;;;;;1.20;1.10;;;;;;;;;;5100733;28;20198;-64
2022/10/04 00:08:49;;;;;;;2.20;1.70;;;;;;;;;;5100423;28;20205;-64
2022/10/04 00:11:19;;;;;;;1.40;1.30;;;;;;;;;;5100236;28;20591;-64
2022/10/04 00:13:50;;;;;;;1.43;1.30;;;;;;;;;;5100094;28;20228;-64
2022/10/04 00:16:21;;;;;;;1.80;1.37;;;;;;;;;;5099997;28;20202;-64
2022/10/04 00:18:50;;;;;;;2.27;1.47;;;;;;;;;;5100299;28;20201;-64
2022/10/04 00:21:18;;;;;;;1.40;1.30;;;;;;;;;;5093513;28;20200;-64
2022/10/04 00:23:47;;;;;;;3.33;1.23;;;;;;;;;;5098257;28;20217;-64
2022/10/04 00:26:30;;;;;;;1.73;1.20;;;;;;;;;;5100095;28;20205;-64
2022/10/04 00:29:19;;;;;;;2.63;1.23;;;;;;;;;;5066686;28;20668;-64
2022/10/04 00:32:06;;;;;;;1.47;1.37;;;;;;;;;;5094438;28;20231;-64
2022/10/04 00:34:47;;;;;;;1.23;1.20;;;;;;;;;;5096521;28;20221;-64
2022/10/04 00:37:16;;;;;;;1.80;1.53;;;;;;;;;;5099679;28;20194;-64
2022/10/04 00:39:46;;;;;;;1.47;1.37;;;;;;;;;;5099787;28;20198;-64
2022/10/04 00:42:38;;;;;;;1.33;1.23;;;;;;;;;;5099478;28;20198;-65
2022/10/04 00:45:13;;;;;;;3.20;2.33;;;;;;;;;;5099590;28;20217;-64
2022/10/04 00:47:58;;;;;;;1.97;1.60;;;;;;;;;;5099310;28;20291;-64
2022/10/04 00:50:29;;;;;;;2.43;1.30;;;;;;;;;;5099411;28;20209;-63
2022/10/04 00:52:59;;;;;;;1.67;1.50;;;;;;;;;;5092642;28;20237;-65
2022/10/04 00:55:32;;;;;;;2.57;1.60;;;;;;;;;;5099486;28;20211;-65
2022/10/04 00:58:01;;;;;;;2.13;1.90;;;;;;;;;;5099775;28;20197;-65
2022/10/04 01:00:32;;;;;;;2.30;1.97;;;;;;;;;;5099391;28;20293;-64
2022/10/04 01:03:01;;;;;;;2.20;1.60;;;;;;;;;;5090836;28;20649;-64
2022/10/04 01:05:33;;;;;;;2.07;1.60;;;;;;;;;;5096065;28;20669;-63
2022/10/04 01:08:04;;;;;;;1.93;1.40;;;;;;;;;;5099044;28;20208;-65
2022/10/04 01:10:33;;;;;;;2.10;1.90;;;;;;;;;;5099170;28;20219;-65
2022/10/04 01:13:05;;;;;;;1.90;1.70;;;;;;;;;;5098805;28;20606;-63
2022/10/04 01:15:40;;;;;;;2.47;1.73;;;;;;;;;;5098893;28;20376;-65
2022/10/04 01:18:13;;;;;;;3.60;2.10;;;;;;;;;;5098787;28;20557;-63
2022/10/04 01:20:50;;;;;;;3.13;1.50;;;;;;;;;;5098909;28;20201;-63
2022/10/04 01:23:32;;;;;;;3.53;1.70;;;;;;;;;;5095318;28;20227;-62
2022/10/04 01:26:00;;;;;;;1.63;1.53;;;;;;;;;;5098737;28;20205;-63
2022/10/04 01:28:29;;;;;;;2.40;1.77;;;;;;;;;;5099011;28;20281;-64
2022/10/04 01:30:57;;;;;;;2.37;1.70;;;;;;;;;;5098334;28;20224;-64
2022/10/04 01:33:25;;;;;;;1.63;1.50;;;;;;;;;;5098925;28;20253;-64
2022/10/04 01:35:53;;;;;;;4.10;1.67;;;;;;;;;;5098706;28;20563;-64
2022/10/04 01:38:21;;;;;;;1.40;1.30;;;;;;;;;;5098835;28;20202;-64
2022/10/04 01:40:52;;;;;;;5.80;1.67;;;;;;;;;;5098509;28;20734;-64
2022/10/04 01:43:23;;;;;;;1.50;1.40;;;;;;;;;;5098594;28;20220;-64
2022/10/04 01:45:53;;;;;;;2.50;1.40;;;;;;;;;;5098260;28;20671;-64
2022/10/04 01:48:22;;;;;;;1.63;1.53;;;;;;;;;;5098449;28;20228;-63
2022/10/04 01:50:54;;;;;;;1.60;1.47;;;;;;;;;;5098579;28;20201;-63
2022/10/04 01:53:24;;;;;;;2.13;1.80;;;;;;;;;;5097979;28;20312;-64
2022/10/04 01:55:54;;;;;;;5.30;2.00;;;;;;;;;;5098146;28;20566;-64
2022/10/04 01:58:24;;;;;;;6.33;1.80;;;;;;;;;;5098216;28;20645;-64
2022/10/04 02:00:55;;;;;;;1.60;1.40;;;;;;;;;;5097995;28;20221;-64
2022/10/04 02:03:27;;;;;;;1.77;1.60;;;;;;;;;;5098195;28;20228;-64
2022/10/04 02:05:58;;;;;;;2.40;1.80;;;;;;;;;;5098223;28;20211;-63
2022/10/04 02:08:28;;;;;;;1.60;1.50;;;;;;;;;;5097838;28;20577;-64
2022/10/04 02:10:57;;;;;;;2.30;2.00;;;;;;;;;;5097996;28;20641;-64
2022/10/04 02:13:28;;;;;;;2.00;1.90;;;;;;;;;;5097439;28;20225;-64
2022/10/04 02:15:56;;;;;;;3.60;1.83;;;;;;;;;;5097543;28;20277;-63
2022/10/04 02:18:25;;;;;;;2.03;1.70;;;;;;;;;;5097699;28;20209;-64
2022/10/04 02:20:54;;;;;;;2.03;1.80;;;;;;;;;;5098216;28;20280;-64
2022/10/04 02:23:23;;;;;;;3.10;1.80;;;;;;;;;;5096024;28;20218;-64
2022/10/04 02:25:51;;;;;;;2.17;1.80;;;;;;;;;;5097394;28;20198;-64
2022/10/04 02:28:20;;;;;;;2.70;2.30;;;;;;;;;;5097712;28;20211;-63
2022/10/04 02:33:31;;;;;;;2.50;2.03;;;;;;;;;;5095776;28;20230;-64
2022/10/04 02:36:00;;;;;;;1.67;1.57;;;;;;;;;;5097931;28;20212;-63
2022/10/04 02:38:30;;;;;;;2.20;1.83;;;;;;;;;;5097887;28;20205;-63
2022/10/04 02:41:02;;;;;;;2.00;1.90;;;;;;;;;;5089302;28;20702;-63
2022/10/04 02:43:35;;;;;;;2.00;1.80;;;;;;;;;;5097583;28;20304;-63
2022/10/04 02:46:07;;;;;;;2.90;2.07;;;;;;;;;;5089726;28;20205;-64
2022/10/04 02:48:37;;;;;;;4.23;2.27;;;;;;;;;;5097354;28;20657;-63
2022/10/04 02:51:09;;;;;;;2.83;2.30;;;;;;;;;;5089658;28;20641;-64
2022/10/04 02:53:42;;;;;;;3.43;2.00;;;;;;;;;;5097298;28;20226;-62
2022/10/04 02:56:11;;;;;;;3.30;2.23;;;;;;;;;;5096908;28;20608;-63
2022/10/04 02:58:41;;;;;;;5.70;2.30;;;;;;;;;;5097844;28;20202;-63
2022/10/04 03:01:15;;;;;;;3.73;2.33;;;;;;;;;;5096490;28;20629;-63
2022/10/04 03:03:45;;;;;;;2.77;2.30;;;;;;;;;;5089992;28;20220;-62
2022/10/04 03:06:16;;;;;;;4.37;2.30;;;;;;;;;;5095510;28;20229;-63
2022/10/04 03:08:46;;;;;;;2.50;2.07;;;;;;;;;;5095552;28;20201;-64
2022/10/04 03:11:15;;;;;;;4.03;2.40;;;;;;;;;;5093668;28;20208;-63
2022/10/04 03:13:47;;;;;;;2.33;2.13;;;;;;;;;;5095550;28;20231;-63
2022/10/04 03:16:15;;;;;;;2.90;2.10;;;;;;;;;;5095563;28;20539;-63
2022/10/04 03:18:44;;;;;;;2.50;2.30;;;;;;;;;;5097533;28;20204;-63
2022/10/04 03:21:13;;;;;;;2.60;2.13;;;;;;;;;;5096716;28;20206;-63
2022/10/04 03:23:42;;;;;;;2.47;2.27;;;;;;;;;;5097366;28;20221;-64
2022/10/04 03:26:18;;;;;;;3.70;2.13;;;;;;;;;;5099037;28;20197;-64
2022/10/04 03:28:47;;;;;;;2.23;2.00;;;;;;;;;;5101503;28;20203;-63
2022/10/04 03:31:16;;;;;;;2.70;2.17;;;;;;;;;;5100720;28;20201;-63
2022/10/04 03:33:44;;;;;;;3.27;2.30;;;;;;;;;;5100957;28;20222;-65
2022/10/04 03:36:13;;;;;;;2.10;1.90;;;;;;;;;;5101172;28;20280;-63
2022/10/04 03:38:41;;;;;;;3.77;2.13;;;;;;;;;;5101017;28;20631;-64
2022/10/04 03:41:10;;;;;;;2.73;2.40;;;;;;;;;;5100742;28;20201;-64
2022/10/04 03:43:42;;;;;;;3.10;2.30;;;;;;;;;;5100863;28;20209;-64
2022/10/04 03:46:13;;;;;;;2.47;2.20;;;;;;;;;;5100691;28;20204;-63
2022/10/04 03:48:43;;;;;;;2.20;1.97;;;;;;;;;;5100815;28;20262;-62
2022/10/04 03:51:14;;;;;;;2.63;2.23;;;;;;;;;;5100528;28;20208;-64
2022/10/04 03:53:43;;;;;;;2.80;2.33;;;;;;;;;;5100956;28;20217;-63
2022/10/04 03:56:12;;;;;;;3.40;2.10;;;;;;;;;;5100239;28;20208;-63
2022/10/04 03:58:40;;;;;;;3.10;2.30;;;;;;;;;;5095835;28;20202;-64
2022/10/04 04:01:17;;;;;;;3.17;2.03;;;;;;;;;;5093197;28;20202;-62
2022/10/04 04:03:51;;;;;;;2.37;2.17;;;;;;;;;;5095865;28;20221;-63
2022/10/04 04:06:19;;;;;;;4.83;2.27;;;;;;;;;;5093592;28;20205;-64
2022/10/04 04:08:50;;;;;;;3.17;2.50;;;;;;;;;;5094548;28;20325;-63
2022/10/04 04:11:20;;;;;;;2.70;1.87;;;;;;;;;;5095727;28;20991;-64
2022/10/04 04:13:51;;;;;;;4.93;2.80;;;;;;;;;;5094616;28;20240;-64
2022/10/04 04:16:24;;;;;;;4.67;2.83;;;;;;;;;;5096902;28;20206;-64
2022/10/04 04:18:54;;;;;;;6.03;2.97;;;;;;;;;;5095999;28;20218;-64
2022/10/04 04:21:23;;;;;;;2.93;2.30;;;;;;;;;;5092397;28;20286;-64
2022/10/04 04:23:54;;;;;;;3.60;2.30;;;;;;;;;;5094272;28;20220;-64
2022/10/04 04:26:26;;;;;;;7.30;2.77;;;;;;;;;;5093690;28;20202;-64
2022/10/04 04:28:55;;;;;;;4.87;2.70;;;;;;;;;;5095959;28;20205;-64
2022/10/04 04:31:26;;;;;;;5.93;2.17;;;;;;;;;;5091043;28;20206;-64
2022/10/04 04:33:59;;;;;;;4.00;2.60;;;;;;;;;;5095655;28;20231;-64
2022/10/04 04:36:28;;;;;;;2.97;2.27;;;;;;;;;;5096222;28;20205;-64
2022/10/04 04:41:53;;;;;;;5.77;2.20;;;;;;;;;;5092005;28;20205;-64
2022/10/04 04:44:21;;;;;;;3.60;2.57;;;;;;;;;;5096028;28;20225;-64
2022/10/04 04:46:52;;;;;;;2.13;2.00;;;;;;;;;;5095505;28;20740;-64
2022/10/04 04:49:22;;;;;;;3.03;2.70;;;;;;;;;;5100007;28;20201;-61
2022/10/04 04:51:51;;;;;;;3.63;2.50;;;;;;;;;;5098896;28;20300;-61
2022/10/04 04:54:20;;;;;;;3.77;2.40;;;;;;;;;;5095285;28;20233;-59
2022/10/04 04:56:50;;;;;;;3.00;2.40;;;;;;;;;;5099095;28;20197;-60
2022/10/04 04:59:20;;;;;;;3.17;2.83;;;;;;;;;;5099551;28;20204;-61
2022/10/04 05:01:50;;;;;;;3.13;2.40;;;;;;;;;;5097204;28;20288;-61
2022/10/04 05:04:20;;;;;;;2.50;2.30;;;;;;;;;;5099233;28;20225;-61
2022/10/04 05:06:49;;;;;;;4.33;2.57;;;;;;;;;;5099198;28;20289;-61
2022/10/04 05:09:24;;;;;;;4.77;2.77;;;;;;;;;;5092277;28;20280;-61
2022/10/04 05:11:53;;;;;;;4.33;2.80;;;;;;;;;;5098448;28;20672;-61
2022/10/04 05:14:21;;;;;;;3.20;2.60;;;;;;;;;;5099267;28;20221;-60
2022/10/04 05:16:52;;;;;;;6.90;3.23;;;;;;;;;;5103474;28;20203;-61
2022/10/04 05:19:21;;;;;;;2.90;2.53;;;;;;;;;;5105264;28;20208;-61
2022/10/04 05:21:51;;;;;;;3.60;2.60;;;;;;;;;;5104316;28;20197;-60
2022/10/04 05:24:22;;;;;;;4.83;2.60;;;;;;;;;;5109133;28;20229;-61
2022/10/04 05:26:51;;;;;;;4.73;2.37;;;;;;;;;;5104839;28;20202;-60
2022/10/04 05:29:20;;;;;;;2.93;2.50;;;;;;;;;;5105874;28;20284;-61
2022/10/04 05:31:53;;;;;;;3.37;2.70;;;;;;;;;;5101535;28;20208;-60
2022/10/04 05:34:24;;;;;;;5.07;2.43;;;;;;;;;;5104484;28;20222;-60
2022/10/04 05:37:01;;;;;;;6.50;2.50;;;;;;;;;;5098634;28;20205;-60
2022/10/04 05:39:32;;;;;;;3.13;2.80;;;;;;;;;;5094057;28;20200;-61
2022/10/04 05:42:06;;;;;;;4.77;2.90;;;;;;;;;;5105591;28;20193;-59
2022/10/04 05:44:36;;;;;;;3.37;2.53;;;;;;;;;;5106203;28;20741;-61
2022/10/04 05:47:07;;;;;;;3.90;3.50;;;;;;;;;;5107598;28;20589;-61
2022/10/04 05:49:42;;;;;;;5.37;3.87;;;;;;;;;;5104862;28;20556;-61
2022/10/04 05:52:14;;;;;;;5.53;3.17;;;;;;;;;;5107007;28;20235;-60
2022/10/04 05:54:42;;;;;;;4.17;3.43;;;;;;;;;;5097802;28;20232;-61
2022/10/04 05:57:34;;;;;;;8.43;4.70;;;;;;;;;;5100736;28;20574;-60
2022/10/04 06:00:11;;;;;;;6.07;4.80;;;;;;;;;;5108377;28;20724;-60
2022/10/04 06:02:57;;;;;;;5.57;3.63;;;;;;;;;;5104707;28;20194;-62
2022/10/04 06:05:28;;;;;;;9.23;4.00;;;;;;;;;;5100222;28;20206;-62
2022/10/04 06:07:58;;;;;;;6.17;3.83;;;;;;;;;;5099987;28;20202;-63
2022/10/04 06:10:44;;;;;;;4.37;3.73;;;;;;;;;;5096629;28;20236;-62
2022/10/04 06:13:17;;;;;;;4.57;3.90;;;;;;;;;;5107299;28;20197;-63
2022/10/04 06:15:53;;;;;;;9.63;4.13;;;;;;;;;;5098160;28;20225;-61
2022/10/04 06:18:27;;;;;;;10.23;3.70;;;;;;;;;;5097817;28;20197;-62
2022/10/04 06:21:19;;;;;;;4.93;4.10;;;;;;;;;;5097816;28;20562;-62
2022/10/04 06:23:53;;;;;;;5.80;4.40;;;;;;;;;;5082698;28;20218;-60
2022/10/04 06:26:24;;;;;;;9.27;4.03;;;;;;;;;;5097254;28;20200;-62
2022/10/04 06:28:54;;;;;;;8.80;4.77;;;;;;;;;;5097710;28;20257;-62
2022/10/04 06:31:32;;;;;;;7.40;3.73;;;;;;;;;;5097133;28;20622;-62
2022/10/04 06:34:09;;;;;;;8.63;3.90;;;;;;;;;;5097720;28;20316;-63
2022/10/04 06:36:46;;;;;;;7.20;4.23;;;;;;;;;;5096162;28;20276;-63
2022/10/04 06:39:35;;;;;;;4.57;3.90;;;;;;;;;;5096111;28;20208;-62
2022/10/04 06:42:32;;;;;;;3.83;3.53;;;;;;;;;;5086264;28;20288;-62
2022/10/04 06:45:22;;;;;;;5.60;3.20;;;;;;;;;;5084461;28;20213;-63
2022/10/04 06:48:01;;;;;;;5.43;3.60;;;;;;;;;;5089907;28;20579;-64
2022/10/04 06:50:36;;;;;;;5.47;3.67;;;;;;;;;;5096965;28;20633;-63
2022/10/04 06:53:15;;;;;;;4.10;3.70;;;;;;;;;;5097163;28;20304;-63
2022/10/04 06:55:53;;;;;;;8.23;3.60;;;;;;;;;;5097015;28;20225;-62
2022/10/04 06:58:34;;;;;;;5.77;3.80;;;;;;;;;;5097178;28;21736;-62
2022/10/04 07:01:06;;;;;;;6.13;3.53;;;;;;;;;;5090255;28;20279;-62
2022/10/04 07:03:39;;;;;;;9.23;3.67;;;;;;;;;;5096553;28;20217;-62
2022/10/04 07:06:10;;;;;;;9.37;4.27;;;;;;;;;;5091291;28;20272;-63
2022/10/04 07:08:41;;;;;;;6.60;4.13;;;;;;;;;;5097098;28;20208;-62
2022/10/04 07:11:13;;;;;;;7.53;4.00;;;;;;;;;;5096479;28;20250;-63
2022/10/04 07:13:44;;;;;;;8.33;4.30;;;;;;;;;;5096692;28;20311;-63
2022/10/04 07:16:21;;;;;;;4.60;4.07;;;;;;;;;;5096740;28;20221;-62
2022/10/04 07:18:56;;;;;;;5.17;4.37;;;;;;;;;;5096953;28;20677;-62
2022/10/04 07:21:26;;;;;;;5.83;4.37;;;;;;;;;;5097446;28;20208;-63
2022/10/04 07:23:56;;;;;;;5.97;4.40;;;;;;;;;;5093741;28;20217;-63
2022/10/04 07:26:28;;;;;;;6.83;5.67;;;;;;;;;;5097178;28;20198;-63
2022/10/04 07:31:46;;;;;;;6.20;5.50;;;;;;;;;;5097075;28;20215;-63
2022/10/04 07:34:16;;;;;;;5.77;4.73;;;;;;;;;;5097132;28;20305;-62
2022/10/04 07:36:45;;;;;;;7.37;4.70;;;;;;;;;;5096870;28;20202;-64
2022/10/04 07:39:15;;;;;;;9.07;5.17;;;;;;;;;;5096934;28;20198;-63
2022/10/04 07:41:47;;;;;;;6.63;4.17;;;;;;;;;;5096433;28;20205;-63
2022/10/04 07:44:19;;;;;;;7.60;5.00;;;;;;;;;;5096776;28;20697;-63
2022/10/04 07:46:51;;;;;;;6.87;4.60;;;;;;;;;;5096424;28;20201;-64
2022/10/04 07:49:20;;;;;;;5.87;4.60;;;;;;;;;;5096721;28;20202;-63
2022/10/04 07:52:05;;;;;;;8.53;5.20;;;;;;;;;;5095845;28;20597;-63
2022/10/04 07:54:37;;;;;;;10.10;4.50;;;;;;;;;;5096514;28;20225;-62
2022/10/04 07:57:08;;;;;;;8.37;4.87;;;;;;;;;;5096522;28;20204;-62
2022/10/04 07:59:41;;;;;;;7.43;5.50;;;;;;;;;;5096937;28;20204;-62
2022/10/04 08:02:17;;;;;;;8.67;4.67;;;;;;;;;;5088616;28;20200;-63
2022/10/04 08:04:47;;;;;;;6.50;4.97;;;;;;;;;;5096278;28;20217;-64
2022/10/04 08:07:18;;;;;;;7.47;4.90;;;;;;;;;;5096454;28;20293;-63
2022/10/04 08:09:53;;;;;;;7.57;4.93;;;;;;;;;;5096322;28;20657;-63
2022/10/04 08:12:24;;;;;;;5.30;4.53;;;;;;;;;;5090649;28;20200;-64
2022/10/04 08:14:56;;;;;;;7.97;4.77;;;;;;;;;;5100152;28;20229;-63
2022/10/04 08:17:41;;;;;;;5.57;4.67;;;;;;;;;;5095471;28;20573;-62
2022/10/04 08:20:21;;;;;;;10.23;4.97;;;;;;;;;;5099946;28;20288;-65
2022/10/04 08:22:54;;;;;;;6.67;4.53;;;;;;;;;;5099933;28;20208;-62
2022/10/04 08:25:25;;;;;;;7.00;4.47;;;;;;;;;;5099995;28;20271;-62
2022/10/04 08:30:59;;;;;;;6.63;5.10;;;;;;;;;;5099653;28;20204;-62
2022/10/04 08:33:41;;;;;;;7.47;4.93;;;;;;;;;;5091863;28;20232;-63
2022/10/04 08:36:17;;;;;;;5.07;4.53;;;;;;;;;;5099590;28;20213;-63
2022/10/04 08:38:48;;;;;;;16.00;5.43;;;;;;;;;;5099476;28;20201;-64
2022/10/04 08:41:34;;;;;;;9.97;5.90;;;;;;;;;;5098717;28;20208;-64
2022/10/04 08:44:22;;;;;;;12.00;6.47;;;;;;;;;;5098814;28;20304;-63
2022/10/04 08:46:59;;;;;;;12.53;6.50;;;;;;;;;;5099455;28;20204;-63
2022/10/04 08:49:52;;;;;;;8.50;6.00;;;;;;;;;;5096351;28;20202;-62
2022/10/04 08:52:29;;;;;;;9.00;6.50;;;;;;;;;;5084394;28;20316;-62
2022/10/04 08:55:21;;;;;;;9.70;5.93;;;;;;;;;;5099050;28;20213;-63
2022/10/04 08:58:08;;;;;;;8.17;5.57;;;;;;;;;;5084501;28;20209;-63
2022/10/04 09:00:54;;;;;;;10.00;6.37;;;;;;;;;;5092875;28;20208;-63
2022/10/04 09:03:36;;;;;;;12.07;6.47;;;;;;;;;;5096147;28;20795;-62
2022/10/04 09:06:22;;;;;;;7.50;6.03;;;;;;;;;;5096434;28;20200;-64
2022/10/04 09:09:17;;;;;;;7.47;5.83;;;;;;;;;;5099070;28;20198;-62
2022/10/04 09:11:51;;;;;;;10.37;5.50;;;;;;;;;;5099205;28;20558;-63
2022/10/04 09:14:30;;;;;;;9.23;5.90;;;;;;;;;;5099071;28;20228;-62
2022/10/04 09:17:07;;;;;;;10.27;5.30;;;;;;;;;;5098970;28;20217;-62
2022/10/04 09:19:43;;;;;;;8.57;5.77;;;;;;;;;;5099231;28;20193;-62
2022/10/04 09:22:18;;;;;;;6.23;4.40;;;;;;;;;;5098834;28;20201;-62
2022/10/04 09:25:07;;;;;;;6.30;4.93;;;;;;;;;;5095323;28;20227;-62
2022/10/04 09:27:49;;;;;;;8.07;4.90;;;;;;;;;;5095547;28;20197;-62
2022/10/04 09:30:23;;;;;;;7.20;4.93;;;;;;;;;;5098153;28;20724;-62
2022/10/04 09:33:04;;;;;;;8.00;4.97;;;;;;;;;;5093412;28;20229;-62
2022/10/04 09:35:51;;;;;;;6.27;4.37;;;;;;;;;;5098556;28;20312;-64
2022/10/04 09:38:28;;;;;;;9.37;4.60;;;;;;;;;;5098458;28;20197;-63
2022/10/04 09:41:04;;;;;;;6.63;5.37;;;;;;;;;;5098418;28;20699;-62
2022/10/04 09:43:50;;;;;;;5.80;4.70;;;;;;;;;;5098121;28;20217;-62
2022/10/04 09:46:28;;;;;;;9.67;4.77;;;;;;;;;;5098228;28;20215;-63
2022/10/04 09:49:01;;;;;;;5.67;5.10;;;;;;;;;;5097931;28;20212;-63
2022/10/04 09:51:49;;;;;;;6.57;5.00;;;;;;;;;;5095885;28;20320;-63
2022/10/04 09:54:29;;;;;;;6.57;5.00;;;;;;;;;;5098444;28;20227;-63
2022/10/04 09:57:18;;;;;;;7.60;4.87;;;;;;;;;;5096533;28;20217;-64
2022/10/04 10:00:05;;;;;;;7.27;4.60;;;;;;;;;;5093308;28;20208;-64
2022/10/04 10:02:47;;;;;;;8.47;5.40;;;;;;;;;;5098595;28;20201;-64
2022/10/04 10:05:23;;;;;;;5.30;4.57;;;;;;;;;;5093315;28;20239;-64
2022/10/04 10:07:54;;;;;;;9.33;5.17;;;;;;;;;;5098103;28;20202;-64
2022/10/04 10:13:42;;;;;;;6.37;4.77;;;;;;;;;;5096270;28;20202;-64
2022/10/04 10:16:18;;;;;;;6.50;4.17;;;;;;;;;;5097745;28;20225;-64
2022/10/04 10:18:58;;;;;;;6.03;4.70;;;;;;;;;;5097801;28;20248;-63
2022/10/04 10:21:34;;;;;;;5.13;4.43;;;;;;;;;;5097808;28;20211;-61
2022/10/04 10:24:16;;;;;;;5.60;4.13;;;;;;;;;;5095170;28;20309;-64
2022/10/04 10:26:54;;;;;;;6.60;4.23;;;;;;;;;;5097878;28;20228;-64
2022/10/04 10:29:28;;;;;;;6.47;4.50;;;;;;;;;;5097378;28;20292;-64
2022/10/04 10:32:06;;;;;;;5.73;4.53;;;;;;;;;;5097741;28;20201;-64
2022/10/04 10:34:52;;;;;;;4.70;4.30;;;;;;;;;;5089628;28;20223;-64
2022/10/04 10:37:32;;;;;;;6.63;4.37;;;;;;;;;;5096921;28;20307;-64
2022/10/04 10:40:08;;;;;;;5.90;4.40;;;;;;;;;;5097806;28;20201;-64
2022/10/04 10:42:53;;;;;;;5.07;4.67;;;;;;;;;;5097185;28;20201;-64
2022/10/04 10:45:39;;;;;;;5.37;4.13;;;;;;;;;;5097283;28;20213;-64
2022/10/04 10:48:14;;;;;;;6.63;4.67;;;;;;;;;;5097767;28;20193;-64
2022/10/04 10:51:02;;;;;;;7.57;4.43;;;;;;;;;;5096714;28;20201;-63
2022/10/04 10:53:50;;;;;;;5.47;4.53;;;;;;;;;;5092343;28;20263;-64
2022/10/04 10:56:43;;;;;;;5.20;4.70;;;;;;;;;;5097246;28;20222;-64
2022/10/04 10:59:32;;;;;;;5.47;4.77;;;;;;;;;;5091698;28;20197;-63
2022/10/04 11:02:18;;;;;;;7.50;4.70;;;;;;;;;;5097103;28;20268;-63
2022/10/04 11:04:57;;;;;;;6.23;5.17;;;;;;;;;;5096878;28;20217;-64
2022/10/04 11:07:46;;;;;;;10.63;5.37;;;;;;;;;;5097372;28;20657;-64
2022/10/04 11:10:33;;;;;;;5.70;5.17;;;;;;;;;;5087035;28;20197;-64
2022/10/04 11:13:11;;;;;;;7.30;5.53;;;;;;;;;;5094783;28;20225;-63
2022/10/04 11:15:44;;;;;;;6.80;5.33;;;;;;;;;;5096783;28;20261;-63
2022/10/04 11:18:33;;;;;;;5.53;4.97;;;;;;;;;;5096918;28;20224;-63
2022/10/04 11:21:24;;;;;;;6.57;5.20;;;;;;;;;;5071421;28;20294;-63
2022/10/04 11:24:13;;;;;;;8.43;6.23;;;;;;;;;;5097032;28;20653;-63
2022/10/04 11:26:59;;;;;;;7.20;6.50;;;;;;;;;;5091319;28;20204;-63
2022/10/04 11:29:50;;;;;;;6.47;5.63;;;;;;;;;;5096759;28;20198;-64
2022/10/04 11:32:44;;;;;;;6.27;5.60;;;;;;;;;;5096694;28;20201;-64
2022/10/04 11:35:35;;;;;;;7.80;6.37;;;;;;;;;;5094126;28;20277;-64
2022/10/04 11:38:10;;;;;;;6.60;5.67;;;;;;;;;;5072726;28;20221;-64
2022/10/04 11:40:49;;;;;;;9.37;5.87;;;;;;;;;;5094078;28;20284;-65
2022/10/04 11:43:34;;;;;;;7.33;5.93;;;;;;;;;;5096810;28;20696;-65
2022/10/04 11:46:11;;;;;;;8.03;5.80;;;;;;;;;;5091191;28;20538;-65
2022/10/04 11:48:47;;;;;;;6.23;5.63;;;;;;;;;;5100606;28;20293;-64
2022/10/04 11:51:28;;;;;;;5.63;5.03;;;;;;;;;;5100740;28;20652;-65
2022/10/04 11:54:14;;;;;;;7.57;5.83;;;;;;;;;;5100729;28;20218;-64
2022/10/04 11:56:49;;;;;;;6.70;5.40;;;;;;;;;;5100136;28;20304;-64
2022/10/04 11:59:26;;;;;;;7.27;5.80;;;;;;;;;;5100677;28;20205;-65
2022/10/04 12:02:15;;;;;;;7.27;5.30;;;;;;;;;;5100360;28;20212;-65
2022/10/04 12:04:59;;;;;;;7.60;6.27;;;;;;;;;;5100131;28;20673;-64
2022/10/04 12:07:34;;;;;;;11.73;6.07;;;;;;;;;;5100153;28;20254;-65
2022/10/04 12:10:11;;;;;;;7.30;5.53;;;;;;;;;;5093763;28;20251;-65
2022/10/04 12:12:54;;;;;;;7.53;5.73;;;;;;;;;;5097802;28;20740;-65
2022/10/04 12:15:40;;;;;;;10.40;6.60;;;;;;;;;;5086070;28;20197;-64
2022/10/04 12:18:33;;;;;;;14.03;6.43;;;;;;;;;;5098059;28;20228;-65
2022/10/04 12:21:22;;;;;;;7.97;5.57;;;;;;;;;;5098010;28;20599;-65
2022/10/04 12:23:53;;;;;;;6.43;5.10;;;;;;;;;;5096836;28;20300;-65
2022/10/04 12:26:46;;;;;;;5.07;4.57;;;;;;;;;;5098550;28;20208;-64
2022/10/04 12:29:30;;;;;;;6.13;5.27;;;;;;;;;;5098320;28;20561;-65
2022/10/04 12:32:00;;;;;;;8.83;5.17;;;;;;;;;;5097728;28;20197;-65
2022/10/04 12:34:31;;;;;;;5.30;4.73;;;;;;;;;;5098264;28;20289;-65
2022/10/04 12:37:05;;;;;;;9.27;5.20;;;;;;;;;;5098554;28;20221;-65
2022/10/04 12:39:51;;;;;;;5.90;4.20;;;;;;;;;;5098530;28;20212;-64
2022/10/04 12:42:24;;;;;;;4.37;3.97;;;;;;;;;;5095851;28;20292;-65
2022/10/04 12:45:05;;;;;;;6.90;4.67;;;;;;;;;;5092747;28;20217;-65
2022/10/04 12:47:47;;;;;;;4.77;3.97;;;;;;;;;;5104451;28;20197;-66
2022/10/04 12:50:24;;;;;;;4.77;3.73;;;;;;;;;;5099536;28;20220;-66
2022/10/04 12:52:59;;;;;;;13.03;4.30;;;;;;;;;;5091387;28;20696;-65
2022/10/04 12:55:42;;;;;;;6.60;3.80;;;;;;;;;;5099748;28;20201;-65
2022/10/04 12:58:14;;;;;;;6.13;3.40;;;;;;;;;;5098887;28;20280;-65
2022/10/04 13:00:44;;;;;;;4.80;3.60;;;;;;;;;;5093188;28;20208;-64
2022/10/04 13:03:20;;;;;;;6.20;3.23;;;;;;;;;;5096216;28;20206;-64
2022/10/04 13:05:55;;;;;;;4.00;3.17;;;;;;;;;;5099155;28;20232;-64
2022/10/04 13:08:30;;;;;;;4.43;3.07;;;;;;;;;;5098772;28;20197;-65
2022/10/04 13:11:06;;;;;;;8.07;3.53;;;;;;;;;;5099045;28;20211;-65
2022/10/04 13:13:48;;;;;;;4.07;3.20;;;;;;;;;;5099191;28;20290;-64
2022/10/04 13:16:21;;;;;;;4.23;3.70;;;;;;;;;;5095512;28;20198;-64
2022/10/04 13:19:14;;;;;;;4.57;2.97;;;;;;;;;;5098498;28;20218;-65
2022/10/04 13:21:59;;;;;;;7.87;3.53;;;;;;;;;;5098867;28;20197;-65
2022/10/04 13:24:53;;;;;;;4.27;3.40;;;;;;;;;;5098610;28;20281;-64
2022/10/04 13:27:20;;;;;;;3.83;3.40;;;;;;;;;;5098336;28;20661;-64
2022/10/04 13:29:52;;;;;;;3.67;3.10;;;;;;;;;;5098750;28;20204;-64
2022/10/04 13:32:22;;;;;;;5.37;3.90;;;;;;;;;;5098353;28;20285;-65
2022/10/04 13:34:55;;;;;;;4.53;3.00;;;;;;;;;;5097578;28;20217;-64
2022/10/04 13:37:30;;;;;;;3.50;2.90;;;;;;;;;;5098246;28;20288;-64
2022/10/04 13:40:16;;;;;;;6.90;3.20;;;;;;;;;;5098674;28;20201;-64
2022/10/04 13:42:59;;;;;;;8.37;4.07;;;;;;;;;;5097991;28;20245;-64
2022/10/04 13:45:34;;;;;;;3.60;2.93;;;;;;;;;;5098232;28;20233;-65
2022/10/04 13:48:11;;;;;;;5.27;3.10;;;;;;;;;;5098341;28;20250;-65
2022/10/04 13:50:52;;;;;;;6.23;3.80;;;;;;;;;;5097965;28;20206;-64
2022/10/04 13:59:06;;;;;;;3.93;3.60;;;;;;;;;;5097680;28;20289;-64
2022/10/04 14:02:09;;;;;;;3.40;3.10;;;;;;;;;;5097757;28;20205;-64
2022/10/04 14:04:57;;;;;;;4.27;3.37;;;;;;;;;;5094262;28;20221;-64
2022/10/04 14:07:37;;;;;;;5.10;3.20;;;;;;;;;;5092684;28;20285;-64
2022/10/04 14:10:22;;;;;;;4.80;3.23;;;;;;;;;;5096565;28;20220;-63
2022/10/04 14:13:09;;;;;;;6.20;3.40;;;;;;;;;;5097467;28;20202;-65
2022/10/04 14:15:54;;;;;;;5.70;3.47;;;;;;;;;;5097589;28;20690;-63
2022/10/04 14:18:37;;;;;;;6.90;3.77;;;;;;;;;;5101281;28;20217;-65
2022/10/04 14:21:23;;;;;;;9.13;3.53;;;;;;;;;;5105468;28;20284;-65
2022/10/04 14:24:09;;;;;;;3.60;3.20;;;;;;;;;;5097955;28;20304;-65
2022/10/04 14:26:49;;;;;;;5.97;3.87;;;;;;;;;;5067089;28;20193;-64
2022/10/04 14:29:27;;;;;;;7.83;3.40;;;;;;;;;;5097675;28;20201;-64
2022/10/04 14:32:08;;;;;;;6.23;3.30;;;;;;;;;;5096930;28;20201;-64
2022/10/04 14:34:55;;;;;;;6.63;3.50;;;;;;;;;;5089891;28;20217;-63
2022/10/04 14:37:36;;;;;;;7.83;4.27;;;;;;;;;;5097166;28;20206;-64
2022/10/04 14:40:20;;;;;;;5.43;3.20;;;;;;;;;;5097357;28;20204;-65
2022/10/04 14:43:13;;;;;;;5.90;3.50;;;;;;;;;;5097115;28;20679;-64
2022/10/04 14:45:50;;;;;;;4.13;3.73;;;;;;;;;;5097245;28;20198;-64
2022/10/04 14:48:35;;;;;;;6.87;3.63;;;;;;;;;;5097196;28;20197;-64
2022/10/04 14:51:14;;;;;;;5.80;3.03;;;;;;;;;;5091532;28;20276;-64
2022/10/04 14:53:50;;;;;;;5.53;3.87;;;;;;;;;;5096144;28;20257;-64
2022/10/04 14:56:32;;;;;;;4.37;3.63;;;;;;;;;;5097068;28;20292;-64
2022/10/04 14:59:07;;;;;;;5.53;3.37;;;;;;;;;;5089782;28;20220;-63
2022/10/04 15:01:37;;;;;;;6.67;3.10;;;;;;;;;;5096822;28;20204;-63
2022/10/04 15:04:12;;;;;;;4.97;3.70;;;;;;;;;;5096748;28;20221;-64
2022/10/04 15:06:47;;;;;;;4.43;3.33;;;;;;;;;;5096711;28;20608;-62
2022/10/04 15:09:23;;;;;;;4.77;3.30;;;;;;;;;;5096562;28;20661;-62
2022/10/04 15:11:55;;;;;;;4.60;3.40;;;;;;;;;;5102698;28;20380;-63
2022/10/04 15:15:00;;;;;;;4.93;3.13;;;;;;;;;;5099488;28;20221;-64
2022/10/04 15:17:31;;;;;;;8.80;3.50;;;;;;;;;;5098314;28;20265;-62
2022/10/04 15:20:03;;;;;;;6.00;3.30;;;;;;;;;;5105681;28;20221;-62
2022/10/04 15:22:39;;;;;;;5.00;3.43;;;;;;;;;;5105053;28;20665;-63
2022/10/04 15:25:23;;;;;;;5.67;3.90;;;;;;;;;;5099068;28;20225;-62
2022/10/04 15:27:54;;;;;;;3.53;3.23;;;;;;;;;;5100865;28;20269;-62
2022/10/04 15:30:26;;;;;;;4.17;3.47;;;;;;;;;;5100581;28;21882;-63
2022/10/04 15:33:06;;;;;;;4.77;3.07;;;;;;;;;;5096220;28;20604;-63
2022/10/04 15:35:39;;;;;;;3.93;3.30;;;;;;;;;;5100894;28;20673;-61
2022/10/04 15:38:15;;;;;;;4.90;3.50;;;;;;;;;;5101119;28;20229;-63
2022/10/04 15:40:52;;;;;;;4.83;3.13;;;;;;;;;;5095773;28;20261;-62
2022/10/04 15:43:26;;;;;;;5.33;3.77;;;;;;;;;;5100469;28;20320;-62
2022/10/04 15:46:01;;;;;;;6.07;3.43;;;;;;;;;;5100834;28;20205;-62
2022/10/04 15:48:38;;;;;;;7.07;4.43;;;;;;;;;;5100560;28;20240;-62
2022/10/04 15:51:11;;;;;;;7.73;3.80;;;;;;;;;;5100796;28;20284;-63
2022/10/04 15:54:09;;;;;;;4.27;3.87;;;;;;;;;;5100614;28;20304;-63
2022/10/04 15:56:49;;;;;;;5.90;3.97;;;;;;;;;;5099686;28;20263;-62